createdAt,value
2018-12-25T00:00:15.544Z,48.75
2018-12-25T00:02:48.345Z,46.92
2018-12-25T00:05:21.404Z,47.09
2018-12-25T00:07:54.418Z,46.64
2018-12-25T00:10:27.730Z,46.38
2018-12-25T00:13:01.019Z,46.41
2018-12-25T00:15:34.279Z,46.13
2018-12-25T00:18:07.800Z,45.97
2018-12-25T00:20:40.946Z,45.64
2018-12-25T00:23:14.098Z,45.88
2018-12-25T00:25:47.215Z,45.23
2018-12-25T00:28:20.326Z,44.89
2018-12-25T00:30:53.116Z,43.71
2018-12-25T00:33:26.545Z,43.59
2018-12-25T00:35:59.826Z,43.03
2018-12-25T00:38:32.811Z,43.44
2018-12-25T00:41:05.825Z,42.60
2018-12-25T00:43:39.248Z,42.57
2018-12-25T00:46:12.536Z,42.14
2018-12-25T00:48:45.433Z,41.91
2018-12-25T00:51:18.327Z,42.53
2018-12-25T00:53:51.271Z,42.20
2018-12-25T00:56:24.669Z,41.05
2018-12-25T00:58:57.917Z,42.52
2018-12-25T01:01:31.063Z,41.99
2018-12-25T01:04:04.084Z,41.96
2018-12-25T01:06:37.111Z,41.90
2018-12-25T01:09:13.395Z,41.29
2018-12-25T01:11:46.726Z,41.67
2018-12-25T01:14:19.894Z,40.76
2018-12-25T01:16:54.034Z,40.76
2018-12-25T01:19:27.035Z,41.24
2018-12-25T01:22:00.116Z,40.42
2018-12-25T01:24:32.981Z,40.63
2018-12-25T01:27:06.142Z,40.23
2018-12-25T01:29:39.325Z,40.16
2018-12-25T01:32:12.543Z,40.96
2018-12-25T01:34:45.521Z,40.32
2018-12-25T01:37:18.438Z,41.63
2018-12-25T01:39:51.504Z,40.93
2018-12-25T01:42:24.659Z,40.65
2018-12-25T01:45:00.322Z,40.58
2018-12-25T01:47:32.308Z,41.21
2018-12-25T01:50:05.537Z,42.35
2018-12-25T01:52:38.399Z,40.46
2018-12-25T01:55:11.324Z,40.54
2018-12-25T01:57:44.408Z,41.41
2018-12-25T02:00:17.300Z,40.26
2018-12-25T02:02:50.689Z,39.57
2018-12-25T02:05:23.584Z,39.12
2018-12-25T02:07:56.731Z,39.24
2018-12-25T02:10:29.730Z,38.98
2018-12-25T02:13:03.318Z,39.04
2018-12-25T02:15:36.378Z,39.10
2018-12-25T02:18:10.163Z,39.66
2018-12-25T02:20:43.287Z,38.95
2018-12-25T02:23:16.548Z,40.19
2018-12-25T02:25:49.720Z,38.76
2018-12-25T02:28:22.735Z,39.08
2018-12-25T02:30:55.687Z,38.08
2018-12-25T02:33:28.692Z,39.66
2018-12-25T02:36:02.890Z,39.31
2018-12-25T02:38:37.048Z,38.61
2018-12-25T02:41:11.414Z,40.26
2018-12-25T02:43:45.912Z,41.06
2018-12-25T02:46:20.053Z,39.57
2018-12-25T02:48:54.138Z,38.58
2018-12-25T02:51:28.615Z,39.52
2018-12-25T02:54:01.942Z,38.69
2018-12-25T02:56:35.841Z,38.12
2018-12-25T02:59:09.437Z,38.84
2018-12-25T03:02:01.931Z,39.82
2018-12-25T03:04:35.033Z,37.71
2018-12-25T03:07:08.334Z,37.92
2018-12-25T03:09:41.737Z,38.06
2018-12-25T03:12:14.889Z,38.16
2018-12-25T03:14:48.409Z,38.06
2018-12-25T03:17:21.586Z,37.81
2018-12-25T03:19:59.785Z,37.67
2018-12-25T03:22:28.603Z,38.11
2018-12-25T03:25:01.670Z,36.85
2018-12-25T03:27:34.565Z,36.87
2018-12-25T03:30:07.946Z,37.29
2018-12-25T03:32:41.009Z,37.40
2018-12-25T03:35:14.762Z,37.98
2018-12-25T03:37:47.709Z,38.64
2018-12-25T03:40:20.841Z,37.55
2018-12-25T03:42:54.950Z,38.54
2018-12-25T03:45:28.188Z,37.50
2018-12-25T03:48:01.457Z,37.98
2018-12-25T03:50:34.514Z,38.34
2018-12-25T03:53:07.636Z,38.43
2018-12-25T03:55:41.858Z,38.04
2018-12-25T03:58:14.822Z,38.23
2018-12-25T04:00:47.774Z,37.31
2018-12-25T04:03:20.997Z,38.46
2018-12-25T04:05:54.019Z,38.24
2018-12-25T04:08:27.091Z,38.08
2018-12-25T04:11:00.151Z,38.36
2018-12-25T04:13:33.169Z,37.76
2018-12-25T04:16:06.568Z,37.10
2018-12-25T04:18:39.542Z,37.99
2018-12-25T04:21:12.800Z,38.35
2018-12-25T04:23:45.833Z,38.03
2018-12-25T04:26:18.842Z,37.91
2018-12-25T04:28:51.602Z,37.68
2018-12-25T04:31:24.752Z,37.96
2018-12-25T04:33:58.537Z,36.97
2018-12-25T04:36:32.310Z,38.57
2018-12-25T04:39:06.282Z,38.09
2018-12-25T04:41:39.203Z,37.00
2018-12-25T04:44:12.699Z,37.22
2018-12-25T04:46:46.007Z,37.32
2018-12-25T04:49:19.117Z,36.97
2018-12-25T04:51:52.171Z,36.95
2018-12-25T04:54:25.270Z,37.44
2018-12-25T04:56:58.660Z,37.40
2018-12-25T04:59:31.898Z,37.99
2018-12-25T05:02:04.911Z,38.20
2018-12-25T05:04:37.915Z,36.92
2018-12-25T05:07:11.039Z,37.24
2018-12-25T05:09:44.019Z,36.60
2018-12-25T05:12:17.034Z,37.37
2018-12-25T05:14:50.094Z,36.77
2018-12-25T05:17:23.711Z,36.63
2018-12-25T05:19:56.820Z,36.60
2018-12-25T05:22:29.794Z,36.46
2018-12-25T05:25:02.871Z,36.21
2018-12-25T05:27:35.729Z,36.40
2018-12-25T05:30:09.374Z,36.15
2018-12-25T05:32:42.676Z,36.89
2018-12-25T05:35:16.064Z,36.30
2018-12-25T05:37:50.021Z,36.60
2018-12-25T05:40:23.563Z,35.54
2018-12-25T05:42:56.584Z,34.38
2018-12-25T05:45:29.713Z,35.37
2018-12-25T05:48:02.515Z,36.63
2018-12-25T05:50:35.571Z,37.27
2018-12-25T05:53:08.548Z,38.14
2018-12-25T05:55:41.564Z,35.15
2018-12-25T05:58:14.468Z,34.37
2018-12-25T06:00:52.502Z,34.38
2018-12-25T06:03:25.393Z,34.82
2018-12-25T06:05:59.482Z,36.28
2018-12-25T06:08:32.795Z,33.76
2018-12-25T06:11:06.029Z,34.71
2018-12-25T06:13:39.359Z,35.47
2018-12-25T06:16:12.480Z,35.17
2018-12-25T06:18:45.499Z,33.90
2018-12-25T06:21:18.432Z,33.89
2018-12-25T06:23:51.755Z,34.50
2018-12-25T06:26:24.908Z,33.28
2018-12-25T06:28:57.986Z,33.61
2018-12-25T06:31:31.140Z,33.56
2018-12-25T06:34:04.375Z,33.00
2018-12-25T06:36:37.474Z,33.55
2018-12-25T06:39:10.485Z,32.75
2018-12-25T06:41:43.551Z,33.50
2018-12-25T06:44:16.566Z,32.18
2018-12-25T06:46:49.715Z,32.53
2018-12-25T06:49:22.802Z,31.74
2018-12-25T06:51:55.878Z,31.37
2018-12-25T06:54:28.906Z,32.68
2018-12-25T06:57:01.911Z,32.08
2018-12-25T06:59:34.812Z,31.70
2018-12-25T07:02:07.830Z,31.42
2018-12-25T07:04:41.108Z,31.75
2018-12-25T07:07:14.081Z,32.91
2018-12-25T07:09:46.939Z,32.70
2018-12-25T07:12:19.770Z,33.69
2018-12-25T07:14:52.954Z,32.10
2018-12-25T07:17:26.532Z,33.38
2018-12-25T07:19:59.181Z,33.18
2018-12-25T07:22:32.319Z,32.89
2018-12-25T07:25:05.340Z,32.78
2018-12-25T07:27:38.986Z,31.02
2018-12-25T07:30:12.424Z,31.79
2018-12-25T07:32:45.396Z,31.66
2018-12-25T07:35:18.422Z,31.38
2018-12-25T07:37:51.417Z,29.83
2018-12-25T07:40:24.189Z,31.77
2018-12-25T07:42:57.294Z,31.61
2018-12-25T07:45:30.810Z,32.13
2018-12-25T07:48:03.774Z,32.53
2018-12-25T07:50:36.640Z,32.57
2018-12-25T07:53:09.653Z,31.82
2018-12-25T07:55:42.842Z,31.12
2018-12-25T07:58:15.838Z,30.92
2018-12-25T08:00:49.025Z,30.28
2018-12-25T08:03:30.683Z,29.14
2018-12-25T08:06:03.854Z,30.54
2018-12-25T08:08:37.037Z,30.49
2018-12-25T08:11:09.980Z,30.55
2018-12-25T08:13:43.177Z,30.46
2018-12-25T08:16:16.157Z,30.36
2018-12-25T08:18:49.119Z,32.17
2018-12-25T08:21:29.055Z,30.86
2018-12-25T08:23:56.491Z,31.28
2018-12-25T08:26:29.640Z,32.08
2018-12-25T08:29:02.546Z,31.78
2018-12-25T08:31:36.449Z,32.79
2018-12-25T08:34:09.917Z,31.05
2018-12-25T08:36:43.119Z,31.62
2018-12-25T08:39:15.864Z,31.80
2018-12-25T08:41:48.873Z,30.66
2018-12-25T08:44:21.835Z,32.00
2018-12-25T08:46:54.744Z,31.15
2018-12-25T08:49:27.730Z,31.80
2018-12-25T08:52:00.893Z,32.50
2018-12-25T08:54:33.984Z,31.57
2018-12-25T08:57:06.794Z,32.98
2018-12-25T08:59:39.724Z,31.29
2018-12-25T09:02:12.860Z,31.16
2018-12-25T09:04:45.880Z,30.91
2018-12-25T09:07:18.907Z,32.10
2018-12-25T09:09:52.061Z,31.40
2018-12-25T09:12:25.114Z,30.62
2018-12-25T09:14:58.132Z,31.17
2018-12-25T09:17:30.952Z,30.42
2018-12-25T09:20:03.885Z,32.26
2018-12-25T09:22:36.901Z,32.76
2018-12-25T09:25:10.787Z,31.00
2018-12-25T09:27:44.317Z,30.75
2018-12-25T09:30:17.394Z,32.17
2018-12-25T09:32:50.843Z,30.67
2018-12-25T09:35:24.715Z,32.03
2018-12-25T09:37:57.774Z,31.98
2018-12-25T09:40:30.852Z,31.98
2018-12-25T09:43:03.912Z,32.75
2018-12-25T09:45:37.068Z,32.98
2018-12-25T09:48:13.414Z,32.84
2018-12-25T09:50:44.930Z,33.00
2018-12-25T09:53:17.967Z,31.98
2018-12-25T09:55:50.949Z,32.35
2018-12-25T09:58:25.005Z,31.75
2018-12-25T10:00:58.062Z,32.49
2018-12-25T10:03:31.236Z,32.17
2018-12-25T10:06:04.251Z,32.79
2018-12-25T10:08:37.364Z,32.81
2018-12-25T10:11:10.432Z,32.41
2018-12-25T10:13:43.492Z,32.17
2018-12-25T10:16:16.417Z,32.83
2018-12-25T10:18:49.584Z,32.55
2018-12-25T10:21:22.344Z,31.97
2018-12-25T10:23:56.338Z,33.02
2018-12-25T10:26:29.577Z,32.79
2018-12-25T10:29:02.703Z,33.95
2018-12-25T10:31:39.669Z,31.78
2018-12-25T10:34:19.702Z,32.70
2018-12-25T10:37:09.617Z,31.79
2018-12-25T10:39:43.658Z,31.77
2018-12-25T10:42:16.724Z,33.05
2018-12-25T10:44:49.871Z,32.26
2018-12-25T10:47:23.230Z,32.90
2018-12-25T10:49:56.323Z,32.17
2018-12-25T10:52:29.345Z,31.88
2018-12-25T10:55:02.421Z,31.88
2018-12-25T10:57:35.496Z,32.27
2018-12-25T11:00:13.747Z,32.27
2018-12-25T11:02:47.037Z,31.88
2018-12-25T11:05:20.569Z,33.18
2018-12-25T11:07:53.756Z,31.98
2018-12-25T11:10:26.811Z,32.07
2018-12-25T11:12:59.888Z,32.68
2018-12-25T11:15:33.016Z,30.95
2018-12-25T11:18:06.241Z,30.95
2018-12-25T11:20:39.311Z,32.74
2018-12-25T11:23:12.312Z,31.89
2018-12-25T11:25:46.222Z,32.55
2018-12-25T11:28:19.463Z,32.43
2018-12-25T11:30:52.401Z,32.43
2018-12-25T11:33:25.509Z,32.41
2018-12-25T11:35:58.639Z,33.53
2018-12-25T11:38:31.642Z,32.30
2018-12-25T11:41:05.311Z,31.31
2018-12-25T11:43:38.674Z,32.70
2018-12-25T11:46:11.637Z,32.87
2018-12-25T11:48:44.762Z,32.59
2018-12-25T11:51:17.759Z,32.59
2018-12-25T11:53:50.729Z,32.59
2018-12-25T11:56:23.837Z,31.97
2018-12-25T11:58:56.821Z,31.94
2018-12-25T12:01:33.815Z,32.02
2018-12-25T12:04:06.857Z,31.36
2018-12-25T12:06:40.154Z,32.54
2018-12-25T12:09:13.318Z,32.54
2018-12-25T12:11:46.457Z,31.75
2018-12-25T12:14:19.527Z,33.80
2018-12-25T12:16:52.580Z,32.70
2018-12-25T12:19:25.540Z,32.64
2018-12-25T12:21:58.913Z,34.17
2018-12-25T12:24:32.615Z,34.51
2018-12-25T12:27:05.756Z,34.97
2018-12-25T12:29:38.727Z,33.30
2018-12-25T12:32:12.751Z,32.76
2018-12-25T12:34:45.795Z,32.76
2018-12-25T12:37:18.898Z,32.29
2018-12-25T12:39:51.992Z,32.74
2018-12-25T12:42:25.419Z,31.77
2018-12-25T12:44:58.876Z,32.24
2018-12-25T12:47:31.920Z,33.08
2018-12-25T12:50:05.921Z,32.61
2018-12-25T12:52:45.396Z,32.76
2018-12-25T12:55:13.168Z,31.24
2018-12-25T12:57:46.208Z,34.09
2018-12-25T13:00:19.327Z,32.16
2018-12-25T13:02:52.350Z,32.51
2018-12-25T13:05:25.597Z,32.11
2018-12-25T13:07:58.648Z,32.44
2018-12-25T13:10:31.703Z,32.68
2018-12-25T13:13:04.756Z,31.44
2018-12-25T13:15:37.868Z,31.44
2018-12-25T13:18:10.967Z,32.15
2018-12-25T13:20:44.238Z,32.11
2018-12-25T13:23:17.702Z,31.69
2018-12-25T13:25:51.171Z,30.99
2018-12-25T13:28:24.810Z,32.07
2018-12-25T13:30:57.448Z,33.19
2018-12-25T13:33:30.623Z,33.73
2018-12-25T13:36:03.916Z,32.89
2018-12-25T13:38:36.988Z,33.44
2018-12-25T13:41:10.454Z,34.49
2018-12-25T13:43:43.467Z,34.80
2018-12-25T13:46:16.543Z,32.17
2018-12-25T13:48:50.006Z,33.43
2018-12-25T13:51:22.944Z,31.57
2018-12-25T13:53:55.790Z,32.50
2018-12-25T13:56:28.780Z,32.20
2018-12-25T13:59:01.805Z,32.79
2018-12-25T14:01:34.702Z,31.93
2018-12-25T14:04:07.804Z,34.20
2018-12-25T14:06:40.800Z,33.39
2018-12-25T14:09:13.971Z,32.94
2018-12-25T14:11:46.980Z,33.12
2018-12-25T14:14:20.223Z,33.26
2018-12-25T14:16:53.244Z,33.96
2018-12-25T14:19:26.600Z,34.80
2018-12-25T14:21:59.793Z,33.55
2018-12-25T14:24:32.907Z,33.59
2018-12-25T14:27:05.927Z,32.32
2018-12-25T14:29:38.922Z,33.82
2018-12-25T14:32:11.523Z,33.93
2018-12-25T14:34:44.434Z,33.66
2018-12-25T14:37:17.400Z,33.31
2018-12-25T14:39:50.414Z,33.51
2018-12-25T14:42:23.493Z,32.30
2018-12-25T14:44:56.426Z,33.17
2018-12-25T14:47:29.480Z,34.12
2018-12-25T14:50:02.480Z,34.88
2018-12-25T14:52:35.963Z,33.36
2018-12-25T14:55:08.773Z,33.71
2018-12-25T14:57:41.698Z,34.05
2018-12-25T15:00:15.225Z,33.33
2018-12-25T15:02:48.365Z,33.33
2018-12-25T15:05:21.484Z,34.33
2018-12-25T15:07:54.605Z,34.35
2018-12-25T15:10:27.597Z,34.04
2018-12-25T15:13:00.913Z,34.18
2018-12-25T15:15:34.035Z,33.40
2018-12-25T15:18:06.975Z,31.98
2018-12-25T15:20:39.794Z,32.84
2018-12-25T15:23:12.847Z,32.74
2018-12-25T15:25:45.840Z,32.77
2018-12-25T15:28:18.724Z,33.15
2018-12-25T15:30:51.586Z,32.55
2018-12-25T15:33:24.598Z,33.22
2018-12-25T15:35:57.885Z,34.63
2018-12-25T15:38:30.785Z,33.90
2018-12-25T15:41:03.961Z,33.15
2018-12-25T15:43:36.906Z,33.68
2018-12-25T15:46:09.671Z,33.28
2018-12-25T15:48:42.255Z,32.44
2018-12-25T15:51:15.357Z,33.22
2018-12-25T15:53:50.392Z,33.08
2018-12-25T15:56:23.176Z,32.79
2018-12-25T15:58:56.343Z,32.79
2018-12-25T16:01:29.258Z,32.76
2018-12-25T16:04:02.332Z,33.26
2018-12-25T16:06:35.288Z,33.78
2018-12-25T16:09:09.481Z,34.29
2018-12-25T16:11:42.575Z,33.90
2018-12-25T16:14:15.578Z,33.26
2018-12-25T16:16:48.511Z,34.21
2018-12-25T16:19:21.447Z,34.53
2018-12-25T16:21:54.482Z,33.76
2018-12-25T16:24:27.782Z,33.15
2018-12-25T16:27:02.691Z,33.37
2018-12-25T16:29:35.738Z,33.81
2018-12-25T16:32:08.937Z,33.83
2018-12-25T16:34:41.594Z,33.66
2018-12-25T16:37:14.707Z,34.52
2018-12-25T16:39:47.889Z,33.31
2018-12-25T16:42:21.011Z,33.07
2018-12-25T16:44:54.136Z,33.79
2018-12-25T16:47:27.627Z,32.92
2018-12-25T16:50:00.660Z,34.29
2018-12-25T16:52:33.978Z,34.29
2018-12-25T16:55:07.082Z,33.88
2018-12-25T16:57:40.218Z,34.87
2018-12-25T17:00:13.347Z,34.87
2018-12-25T17:02:46.981Z,35.06
2018-12-25T17:05:20.213Z,34.47
2018-12-25T17:07:53.576Z,34.54
2018-12-25T17:10:26.891Z,35.50
2018-12-25T17:12:59.853Z,35.50
2018-12-25T17:15:32.785Z,35.32
2018-12-25T17:18:05.917Z,35.32
2018-12-25T17:20:38.880Z,35.58
2018-12-25T17:23:11.954Z,35.01
2018-12-25T17:25:45.812Z,34.65
2018-12-25T17:28:18.799Z,34.91
2018-12-25T17:30:51.895Z,34.91
2018-12-25T17:33:24.859Z,35.40
2018-12-25T17:35:58.214Z,35.04
2018-12-25T17:38:31.460Z,35.04
2018-12-25T17:41:07.801Z,35.08
2018-12-25T17:43:40.946Z,35.08
2018-12-25T17:46:14.492Z,35.71
2018-12-25T17:49:16.695Z,35.71
2018-12-25T17:51:50.320Z,34.98
2018-12-25T17:54:23.464Z,34.98
2018-12-25T17:57:56.597Z,35.31
2018-12-25T18:00:34.184Z,35.31
2018-12-25T18:03:07.535Z,36.13
2018-12-25T18:05:41.060Z,35.74
2018-12-25T18:08:14.206Z,35.75
2018-12-25T18:10:47.192Z,35.75
2018-12-25T18:13:20.210Z,36.51
2018-12-25T18:15:53.320Z,35.20
2018-12-25T18:18:26.782Z,35.47
2018-12-25T18:20:59.992Z,35.47
2018-12-25T18:23:33.087Z,36.01
2018-12-25T18:26:06.189Z,36.31
2018-12-25T18:28:39.328Z,36.26
2018-12-25T18:31:12.372Z,36.03
2018-12-25T18:33:45.546Z,35.54
2018-12-25T18:36:18.547Z,35.72
2018-12-25T18:38:51.783Z,36.06
2018-12-25T18:41:26.649Z,36.06
2018-12-25T18:46:50.593Z,36.18
2018-12-25T18:49:23.632Z,36.63
2018-12-25T18:51:56.882Z,35.97
2018-12-25T18:54:30.167Z,36.39
2018-12-25T18:57:22.235Z,36.55
2018-12-25T18:59:55.302Z,36.28
2018-12-25T19:02:28.676Z,36.52
2018-12-25T19:05:01.536Z,36.86
2018-12-25T19:07:34.855Z,37.04
2018-12-25T19:10:09.919Z,37.07
2018-12-25T19:12:43.191Z,36.58
2018-12-25T19:15:24.003Z,36.14
2018-12-25T19:17:57.025Z,36.14
2018-12-25T19:20:31.050Z,35.75
2018-12-25T19:23:04.555Z,36.39
2018-12-25T19:25:37.798Z,36.11
2018-12-25T19:28:20.515Z,36.32
2018-12-25T19:30:56.637Z,36.08
2018-12-25T19:33:29.770Z,36.18
2018-12-25T19:38:44.891Z,35.29
2018-12-25T19:41:18.037Z,35.52
2018-12-25T19:43:51.228Z,35.62
2018-12-25T19:46:24.631Z,35.70
2018-12-25T19:48:57.705Z,35.11
2018-12-25T19:51:32.616Z,35.86
2018-12-25T19:54:05.486Z,36.26
2018-12-25T19:56:46.213Z,37.05
2018-12-25T19:59:19.303Z,36.98
2018-12-25T20:01:52.376Z,36.20
2018-12-25T20:04:28.206Z,35.98
2018-12-25T20:07:37.394Z,36.30
2018-12-25T20:10:45.234Z,35.97
2018-12-25T20:13:46.609Z,36.79
2018-12-25T20:16:34.640Z,36.13
2018-12-25T20:19:18.927Z,36.39
2018-12-25T20:22:23.009Z,36.68
2018-12-25T20:25:20.039Z,36.33
2018-12-25T20:28:28.992Z,36.68
2018-12-25T20:31:30.182Z,36.57
2018-12-25T20:34:21.242Z,36.43
2018-12-25T20:37:34.786Z,36.19
2018-12-25T20:40:39.094Z,36.31
2018-12-25T20:43:36.107Z,37.13
2018-12-25T20:47:01.292Z,36.52
2018-12-25T20:50:03.159Z,36.90
2018-12-25T20:53:17.913Z,36.34
2018-12-25T20:59:19.711Z,36.39
2018-12-25T21:02:19.381Z,36.86
2018-12-25T21:05:19.113Z,37.53
2018-12-25T21:08:09.792Z,36.90
2018-12-25T21:11:28.672Z,36.77
2018-12-25T21:14:42.644Z,37.11
2018-12-25T21:17:32.528Z,36.87
2018-12-25T21:20:32.441Z,36.94
2018-12-25T21:23:57.668Z,37.14
2018-12-25T21:27:23.003Z,37.38
2018-12-25T21:29:56.260Z,39.34
2018-12-25T21:32:30.081Z,38.13
2018-12-25T21:38:17.066Z,37.82
2018-12-25T21:40:50.386Z,37.67
2018-12-25T21:43:23.787Z,38.51
2018-12-25T21:45:57.332Z,37.78
2018-12-25T21:48:30.739Z,38.54
2018-12-25T21:51:07.274Z,38.14
2018-12-25T21:53:43.954Z,37.67
2018-12-25T21:56:17.407Z,37.80
2018-12-25T21:58:50.451Z,37.83
2018-12-25T22:01:24.798Z,38.11
2018-12-25T22:03:58.036Z,38.52
2018-12-25T22:06:32.779Z,38.61
2018-12-25T22:09:06.753Z,38.11
2018-12-25T22:11:39.801Z,39.08
2018-12-25T22:14:15.793Z,38.73
2018-12-25T22:16:50.019Z,38.72
2018-12-25T22:19:23.040Z,38.87
2018-12-25T22:21:56.278Z,38.08
2018-12-25T22:24:29.592Z,38.92
2018-12-25T22:27:02.883Z,38.61
2018-12-25T22:29:36.353Z,39.35
2018-12-25T22:32:09.994Z,38.89
2018-12-25T22:34:43.224Z,38.98
2018-12-25T22:37:16.209Z,39.33
2018-12-25T22:39:49.466Z,38.49
2018-12-25T22:42:22.659Z,38.16
2018-12-25T22:44:55.604Z,38.99
2018-12-25T22:47:28.561Z,39.45
2018-12-25T22:50:01.597Z,39.45
2018-12-25T22:52:34.496Z,39.04
2018-12-25T22:55:08.915Z,39.08
2018-12-25T22:57:42.581Z,39.12
2018-12-25T23:00:15.904Z,39.41
2018-12-25T23:02:48.969Z,39.09
2018-12-25T23:05:22.009Z,39.18
2018-12-25T23:07:55.177Z,39.18
2018-12-25T23:10:28.343Z,39.38
2018-12-25T23:13:01.478Z,39.11
2018-12-25T23:15:34.924Z,38.84
2018-12-25T23:18:08.138Z,39.94
2018-12-25T23:20:41.704Z,39.38
2018-12-25T23:23:14.914Z,39.57
2018-12-25T23:25:48.104Z,40.10
2018-12-25T23:28:21.186Z,40.06
2018-12-25T23:30:54.679Z,40.39
2018-12-25T23:33:27.637Z,38.92
2018-12-25T23:36:01.986Z,38.84
2018-12-25T23:38:35.204Z,38.84
2018-12-25T23:41:08.203Z,38.99
2018-12-25T23:43:41.092Z,38.95
2018-12-25T23:46:14.059Z,39.30
2018-12-25T23:48:46.964Z,39.19
2018-12-25T23:51:20.401Z,39.19
2018-12-25T23:53:53.585Z,39.99
2018-12-25T23:56:27.357Z,39.15
2018-12-25T23:59:00.617Z,39.15
